createdAt,value
2023-02-22T00:01:08.814Z,5.00
2023-02-22T00:03:39.275Z,5.50
2023-02-22T00:06:07.911Z,5.60
2023-02-22T00:08:37.893Z,5.20
2023-02-22T00:11:15.244Z,5.30
2023-02-22T00:13:45.275Z,5.80
2023-02-22T00:16:19.628Z,5.60
2023-02-22T00:18:51.921Z,5.60
2023-02-22T00:21:23.071Z,5.70
2023-02-22T00:23:54.846Z,6.10
2023-02-22T00:26:23.698Z,6.40
2023-02-22T00:28:56.523Z,5.60
2023-02-22T00:31:25.843Z,5.80
2023-02-22T00:33:55.424Z,6.60
2023-02-22T00:36:24.453Z,5.70
2023-02-22T00:38:54.838Z,6.30
2023-02-22T00:41:27.002Z,5.50
2023-02-22T00:44:00.501Z,6.70
2023-02-22T00:46:29.016Z,6.40
2023-02-22T00:49:03.798Z,6.40
2023-02-22T00:51:34.135Z,6.30
2023-02-22T00:54:06.019Z,6.20
2023-02-22T00:56:35.210Z,5.90
2023-02-22T00:59:04.813Z,6.10
2023-02-22T01:01:33.421Z,6.70
2023-02-22T01:04:02.010Z,6.70
2023-02-22T01:06:30.556Z,6.60
2023-02-22T01:09:03.975Z,6.00
2023-02-22T01:11:32.529Z,6.20
2023-02-22T01:14:09.823Z,5.50
2023-02-22T01:16:38.307Z,6.10
2023-02-22T01:19:06.814Z,5.80
2023-02-22T01:21:35.750Z,6.10
2023-02-22T01:24:04.563Z,6.40
2023-02-22T01:26:33.100Z,6.00
2023-02-22T01:29:01.841Z,6.30
2023-02-22T01:31:30.429Z,6.10
2023-02-22T01:34:00.022Z,5.90
2023-02-22T01:36:28.614Z,5.70
2023-02-22T01:38:57.207Z,5.90
2023-02-22T01:41:28.472Z,6.50
2023-02-22T01:44:17.550Z,6.90
2023-02-22T01:46:46.281Z,6.50
2023-02-22T01:49:15.596Z,6.50
2023-02-22T01:51:49.030Z,6.70
2023-02-22T01:54:31.723Z,6.50
2023-02-22T01:57:06.325Z,6.00
2023-02-22T01:59:39.810Z,6.50
2023-02-22T02:04:44.690Z,6.50
2023-02-22T02:07:22.836Z,6.20
2023-02-22T02:10:04.867Z,6.40
2023-02-22T02:12:36.454Z,6.00
2023-02-22T02:15:29.831Z,6.10
2023-02-22T02:18:05.210Z,6.50
2023-02-22T02:20:49.411Z,5.80
2023-02-22T02:23:41.171Z,6.70
2023-02-22T02:26:47.000Z,6.50
2023-02-22T02:29:37.066Z,6.20
2023-02-22T02:32:24.081Z,6.20
2023-02-22T02:35:04.124Z,5.90
2023-02-22T02:37:58.185Z,6.70
2023-02-22T02:40:37.603Z,6.40
2023-02-22T02:43:24.517Z,6.70
2023-02-22T02:46:21.623Z,6.60
2023-02-22T02:49:06.110Z,6.30
2023-02-22T02:51:38.954Z,6.20
2023-02-22T02:56:37.189Z,6.20
2023-02-22T02:59:28.249Z,5.40
2023-02-22T03:02:15.060Z,6.00
2023-02-22T03:04:43.670Z,6.30
2023-02-22T03:07:34.201Z,5.90
2023-02-22T03:10:13.346Z,6.20
2023-02-22T03:13:04.052Z,6.00
2023-02-22T03:15:40.852Z,6.50
2023-02-22T03:18:18.799Z,6.50
2023-02-22T03:21:01.520Z,5.80
2023-02-22T03:23:41.624Z,6.20
2023-02-22T03:26:19.692Z,6.80
2023-02-22T03:28:51.737Z,6.00
2023-02-22T03:31:26.777Z,6.40
2023-02-22T03:34:01.072Z,6.60
2023-02-22T03:36:35.272Z,6.90
2023-02-22T03:39:04.539Z,6.60
2023-02-22T03:41:44.404Z,6.60
2023-02-22T03:44:20.198Z,6.30
2023-02-22T03:46:52.739Z,6.30
2023-02-22T03:49:36.021Z,6.80
2023-02-22T03:52:07.262Z,6.10
2023-02-22T03:54:37.936Z,6.00
2023-02-22T03:57:16.819Z,5.70
2023-02-22T03:59:49.737Z,6.00
2023-02-22T04:02:19.281Z,6.10
2023-02-22T04:04:51.830Z,6.10
2023-02-22T04:07:28.022Z,6.50
2023-02-22T04:10:03.546Z,6.40
2023-02-22T04:12:32.885Z,6.20
2023-02-22T04:15:09.508Z,5.90
2023-02-22T04:17:38.768Z,5.90
2023-02-22T04:20:11.903Z,5.60
2023-02-22T04:22:53.448Z,6.00
2023-02-22T04:25:23.676Z,6.20
2023-02-22T04:27:56.232Z,6.00
2023-02-22T04:30:36.269Z,6.50
2023-02-22T04:33:10.950Z,6.20
2023-02-22T04:35:44.299Z,6.60
2023-02-22T04:38:13.047Z,6.20
2023-02-22T04:40:42.684Z,6.80
2023-02-22T04:43:11.397Z,7.80
2023-02-22T04:45:41.814Z,8.00
2023-02-22T04:48:11.949Z,7.70
2023-02-22T04:50:40.832Z,7.80
2023-02-22T04:53:09.413Z,7.70
2023-02-22T04:55:42.883Z,7.10
2023-02-22T04:58:13.881Z,7.40
2023-02-22T05:00:45.014Z,7.10
2023-02-22T05:03:19.208Z,6.60
2023-02-22T05:05:52.160Z,7.00
2023-02-22T05:10:49.607Z,7.10
2023-02-22T05:13:18.292Z,7.40
2023-02-22T05:15:49.962Z,6.70
2023-02-22T05:18:23.934Z,6.20
2023-02-22T05:20:57.680Z,7.40
2023-02-22T05:23:26.302Z,7.20
2023-02-22T05:25:58.199Z,6.40
2023-02-22T05:28:27.992Z,7.10
2023-02-22T05:30:59.428Z,6.10
2023-02-22T05:33:27.997Z,6.00
2023-02-22T05:36:01.594Z,6.30
2023-02-22T05:38:30.528Z,6.50
2023-02-22T05:40:59.133Z,6.80
2023-02-22T05:43:28.834Z,6.90
2023-02-22T05:46:18.722Z,7.10
2023-02-22T05:48:49.646Z,6.90
2023-02-22T05:51:19.839Z,7.00
2023-02-22T05:53:48.423Z,6.00
2023-02-22T05:56:28.303Z,6.60
2023-02-22T05:59:00.638Z,6.40
2023-02-22T06:01:34.266Z,6.60
2023-02-22T06:04:07.867Z,7.00
2023-02-22T06:06:36.410Z,6.20
2023-02-22T06:09:10.329Z,5.90
2023-02-22T06:11:41.284Z,5.50
2023-02-22T06:14:09.895Z,5.40
2023-02-22T06:16:38.444Z,6.10
2023-02-22T06:19:10.863Z,5.90
2023-02-22T06:21:39.729Z,6.20
2023-02-22T06:24:10.726Z,5.80
2023-02-22T06:26:42.891Z,5.60
2023-02-22T06:29:18.698Z,6.40
2023-02-22T06:31:50.571Z,5.70
2023-02-22T06:34:24.915Z,6.00
2023-02-22T06:36:53.509Z,5.20
2023-02-22T06:39:22.170Z,5.10
2023-02-22T06:41:57.947Z,5.20
2023-02-22T06:44:26.910Z,5.30
2023-02-22T06:46:59.845Z,5.60
2023-02-22T06:49:29.215Z,4.90
2023-02-22T06:51:57.753Z,5.30
2023-02-22T06:54:27.383Z,5.30
2023-02-22T06:56:57.691Z,5.50
2023-02-22T06:59:26.358Z,5.30
2023-02-22T07:01:55.397Z,5.30
2023-02-22T07:04:24.040Z,6.00
2023-02-22T07:06:52.737Z,6.30
2023-02-22T07:09:21.463Z,5.70
2023-02-22T07:11:50.220Z,6.00
2023-02-22T07:14:19.177Z,5.40
2023-02-22T07:16:47.696Z,5.60
2023-02-22T07:19:16.249Z,5.30
2023-02-22T07:21:48.249Z,4.60
2023-02-22T07:24:18.984Z,4.50
2023-02-22T07:26:47.537Z,4.70
2023-02-22T07:29:16.935Z,4.70
2023-02-22T07:31:45.562Z,5.30
2023-02-22T07:34:14.652Z,4.10
2023-02-22T07:36:43.313Z,5.10
2023-02-22T07:39:11.894Z,4.30
2023-02-22T07:41:40.599Z,3.90
2023-02-22T07:44:17.691Z,4.50
2023-02-22T07:46:50.561Z,4.50
2023-02-22T07:49:19.136Z,3.60
2023-02-22T07:51:47.716Z,4.30
2023-02-22T07:54:16.305Z,3.90
2023-02-22T07:56:46.859Z,3.90
2023-02-22T07:59:18.813Z,4.00
2023-02-22T08:01:50.657Z,3.50
2023-02-22T08:04:19.198Z,3.50
2023-02-22T08:06:50.993Z,4.50
2023-02-22T08:09:19.667Z,4.00
2023-02-22T08:11:48.468Z,3.50
2023-02-22T08:14:17.658Z,3.60
2023-02-22T08:16:46.399Z,3.60
2023-02-22T08:19:15.849Z,4.00
2023-02-22T08:21:47.175Z,4.00
2023-02-22T08:24:19.050Z,3.20
2023-02-22T08:26:48.074Z,3.20
2023-02-22T08:29:16.732Z,3.40
2023-02-22T08:31:50.994Z,3.20
2023-02-22T08:34:25.069Z,3.30
2023-02-22T08:36:57.138Z,3.60
2023-02-22T08:39:29.922Z,3.10
2023-02-22T08:41:58.523Z,3.40
2023-02-22T08:44:27.803Z,3.30
2023-02-22T08:47:01.323Z,3.70
2023-02-22T08:49:29.902Z,3.70
2023-02-22T08:52:03.865Z,3.20
2023-02-22T08:54:32.488Z,3.40
2023-02-22T08:57:06.284Z,3.80
2023-02-22T08:59:37.906Z,3.60
2023-02-22T09:02:11.204Z,3.50
2023-02-22T09:04:39.831Z,3.50
2023-02-22T09:07:11.534Z,3.20
2023-02-22T09:09:40.005Z,2.90
2023-02-22T09:12:12.068Z,3.30
2023-02-22T09:14:40.820Z,3.30
2023-02-22T09:17:09.534Z,2.80
2023-02-22T09:19:38.044Z,2.70
2023-02-22T09:22:06.648Z,3.20
2023-02-22T09:24:36.237Z,3.60
2023-02-22T09:27:04.900Z,3.40
2023-02-22T09:29:35.714Z,3.00
2023-02-22T09:32:04.664Z,3.20
2023-02-22T09:34:35.633Z,3.20
2023-02-22T09:37:08.888Z,3.40
2023-02-22T09:39:38.003Z,3.70
2023-02-22T09:42:17.590Z,3.60
2023-02-22T09:45:12.977Z,3.70
2023-02-22T09:47:50.984Z,3.40
2023-02-22T09:50:26.909Z,3.60
2023-02-22T09:53:33.774Z,3.60
2023-02-22T09:56:11.215Z,3.70
2023-02-22T09:58:48.074Z,4.30
2023-02-22T10:01:28.461Z,3.30
2023-02-22T10:07:06.318Z,4.10
2023-02-22T10:09:43.263Z,4.20
2023-02-22T10:12:38.437Z,4.00
2023-02-22T10:15:19.903Z,4.40
2023-02-22T10:17:59.060Z,3.80
2023-02-22T10:20:39.784Z,3.30
2023-02-22T10:23:23.842Z,3.30
2023-02-22T10:26:04.586Z,3.30
2023-02-22T10:28:42.594Z,4.10
2023-02-22T10:31:22.115Z,3.50
2023-02-22T10:33:59.082Z,3.40
2023-02-22T10:36:31.094Z,3.90
2023-02-22T10:39:14.241Z,3.20
2023-02-22T10:41:55.756Z,3.50
2023-02-22T10:44:28.127Z,3.90
2023-02-22T10:47:01.578Z,3.60
2023-02-22T10:49:39.418Z,3.30
2023-02-22T10:52:23.422Z,3.90
2023-02-22T10:55:01.050Z,3.00
2023-02-22T10:57:38.025Z,3.50
2023-02-22T11:00:30.778Z,3.20
2023-02-22T11:03:02.066Z,3.60
2023-02-22T11:05:38.145Z,3.50
2023-02-22T11:08:21.617Z,3.20
2023-02-22T11:10:53.572Z,2.90
2023-02-22T11:13:37.904Z,3.50
2023-02-22T11:16:29.173Z,3.10
2023-02-22T11:19:03.883Z,3.20
2023-02-22T11:21:32.831Z,3.10
2023-02-22T11:24:11.717Z,3.10
2023-02-22T11:26:55.314Z,3.10
2023-02-22T11:29:35.773Z,3.30
2023-02-22T11:32:21.096Z,2.90
2023-02-22T11:35:03.557Z,3.20
2023-02-22T11:37:37.658Z,3.20
2023-02-22T11:40:17.941Z,3.60
2023-02-22T11:42:47.274Z,3.10
2023-02-22T11:45:27.709Z,3.30
2023-02-22T11:48:06.418Z,3.20
2023-02-22T11:50:56.729Z,3.50
2023-02-22T11:54:06.884Z,3.40
2023-02-22T11:56:49.337Z,3.60
2023-02-22T11:59:41.012Z,3.60
2023-02-22T12:02:19.950Z,3.10
2023-02-22T12:04:55.081Z,3.30
2023-02-22T12:07:48.912Z,3.20
2023-02-22T12:13:50.398Z,2.90
2023-02-22T12:16:35.661Z,2.50
2023-02-22T12:19:31.791Z,3.20
2023-02-22T12:22:09.728Z,3.00
2023-02-22T12:24:46.342Z,3.20
2023-02-22T12:27:24.455Z,3.40
2023-02-22T12:29:59.619Z,3.60
2023-02-22T12:32:49.959Z,3.90
2023-02-22T12:35:23.791Z,3.90
2023-02-22T12:38:17.298Z,3.80
2023-02-22T12:40:57.274Z,3.70
2023-02-22T12:44:02.909Z,3.20
2023-02-22T12:46:49.939Z,4.00
2023-02-22T12:49:28.935Z,4.10
2023-02-22T12:52:20.562Z,4.20
2023-02-22T12:55:16.067Z,4.40
2023-02-22T12:57:44.695Z,4.70
2023-02-22T13:00:39.738Z,4.10
2023-02-22T13:03:40.118Z,4.40
2023-02-22T13:06:22.011Z,5.10
2023-02-22T13:09:33.713Z,5.10
2023-02-22T13:12:20.596Z,4.80
2023-02-22T13:14:49.388Z,8.00
2023-02-22T13:17:33.212Z,3.80
2023-02-22T13:20:06.459Z,4.80
2023-02-22T13:23:17.700Z,4.00
2023-02-22T13:25:58.149Z,4.60
2023-02-22T13:28:33.594Z,4.50
2023-02-22T13:31:31.085Z,3.70
2023-02-22T13:34:29.099Z,3.90
2023-02-22T13:36:58.351Z,3.70
2023-02-22T13:40:03.261Z,3.70
2023-02-22T13:43:01.946Z,4.60
2023-02-22T13:46:18.126Z,4.30
2023-02-22T13:49:02.295Z,4.50
2023-02-22T13:51:39.842Z,4.60
2023-02-22T13:54:16.486Z,4.30
2023-02-22T13:56:46.730Z,4.30
2023-02-22T13:59:41.629Z,4.30
2023-02-22T14:02:48.503Z,4.50
2023-02-22T14:05:39.848Z,4.00
2023-02-22T14:08:28.331Z,4.00
2023-02-22T14:11:01.207Z,4.00
2023-02-22T14:14:01.023Z,4.60
2023-02-22T14:16:34.176Z,4.60
2023-02-22T14:19:14.769Z,4.20
2023-02-22T14:22:02.413Z,4.00
2023-02-22T14:24:45.382Z,3.90
2023-02-22T14:27:15.302Z,4.30
2023-02-22T14:29:56.730Z,4.00
2023-02-22T14:32:36.059Z,4.30
2023-02-22T14:35:14.315Z,3.80
2023-02-22T14:37:56.628Z,4.60
2023-02-22T14:40:30.931Z,4.20
2023-02-22T14:43:12.192Z,4.30
2023-02-22T14:45:53.767Z,4.50
2023-02-22T14:48:45.408Z,4.60
2023-02-22T14:51:29.443Z,4.60
2023-02-22T14:54:10.538Z,4.20
2023-02-22T14:56:41.655Z,4.90
2023-02-22T14:59:27.568Z,4.40
2023-02-22T15:02:26.298Z,5.00
2023-02-22T15:04:56.665Z,4.40
2023-02-22T15:07:31.875Z,4.00
2023-02-22T15:10:20.824Z,4.10
2023-02-22T15:13:11.362Z,4.40
2023-02-22T15:15:44.043Z,4.40
2023-02-22T15:18:23.457Z,4.50
2023-02-22T15:20:58.717Z,4.70
2023-02-22T15:23:30.521Z,4.40
2023-02-22T15:25:59.265Z,3.70
2023-02-22T15:28:31.330Z,3.90
2023-02-22T15:31:28.294Z,4.30
2023-02-22T15:33:57.949Z,3.90
2023-02-22T15:36:31.367Z,3.50
2023-02-22T15:38:59.862Z,3.70
2023-02-22T15:41:33.688Z,3.70
2023-02-22T15:44:22.797Z,3.80
2023-02-22T15:46:55.410Z,3.80
2023-02-22T15:49:25.081Z,3.70
2023-02-22T15:52:19.836Z,3.90
2023-02-22T15:54:52.017Z,4.10
2023-02-22T15:57:25.689Z,4.30
2023-02-22T15:59:57.468Z,4.40
2023-02-22T16:02:34.978Z,5.30
2023-02-22T16:05:12.022Z,5.30
2023-02-22T16:07:45.591Z,6.30
2023-02-22T16:10:29.974Z,8.80
2023-02-22T16:13:31.876Z,9.60
2023-02-22T16:16:22.890Z,9.70
2023-02-22T16:18:52.809Z,10.50
2023-02-22T16:21:22.882Z,10.90
2023-02-22T16:23:57.375Z,10.90
2023-02-22T16:26:35.237Z,10.50
2023-02-22T16:29:07.717Z,10.80
2023-02-22T16:31:39.270Z,9.50
2023-02-22T16:34:41.892Z,10.10
2023-02-22T16:37:22.581Z,9.80
2023-02-22T16:39:52.123Z,10.50
2023-02-22T16:42:24.353Z,11.00
2023-02-22T16:44:53.961Z,12.50
2023-02-22T16:47:22.542Z,11.20
2023-02-22T16:49:57.272Z,11.20
2023-02-22T16:52:28.418Z,9.70
2023-02-22T16:54:58.151Z,9.30
2023-02-22T16:57:28.159Z,9.80
2023-02-22T16:59:56.727Z,9.60
2023-02-22T17:02:25.629Z,10.50
2023-02-22T17:04:54.213Z,10.40
2023-02-22T17:07:31.081Z,10.40
2023-02-22T17:10:00.377Z,10.50
2023-02-22T17:12:32.358Z,12.00
2023-02-22T17:15:01.127Z,11.20
2023-02-22T17:17:29.679Z,12.40
2023-02-22T17:20:00.052Z,12.50
2023-02-22T17:22:28.612Z,13.10
2023-02-22T17:24:57.302Z,13.00
2023-02-22T17:27:25.985Z,14.50
2023-02-22T17:29:54.701Z,13.80
2023-02-22T17:32:23.385Z,14.10
2023-02-22T17:34:52.448Z,13.00
2023-02-22T17:37:21.033Z,13.80
2023-02-22T17:39:49.521Z,13.60
2023-02-22T17:42:18.306Z,13.60
2023-02-22T17:44:47.029Z,13.20
2023-02-22T17:47:18.965Z,16.60
2023-02-22T17:49:49.393Z,15.00
2023-02-22T17:52:17.971Z,11.80
2023-02-22T17:54:51.166Z,11.50
2023-02-22T17:57:21.798Z,11.40
2023-02-22T17:59:50.579Z,10.80
2023-02-22T18:02:21.428Z,10.70
2023-02-22T18:04:52.554Z,11.40
2023-02-22T18:07:24.310Z,14.30
2023-02-22T18:09:53.029Z,15.70
2023-02-22T18:12:21.642Z,17.00
2023-02-22T18:14:50.370Z,18.00
2023-02-22T18:17:19.056Z,18.60
2023-02-22T18:19:48.754Z,18.70
2023-02-22T18:22:17.401Z,17.90
2023-02-22T18:24:46.037Z,18.10
2023-02-22T18:27:17.280Z,18.90
2023-02-22T18:29:48.443Z,16.20
2023-02-22T18:32:19.910Z,18.50
2023-02-22T18:34:50.918Z,18.40
2023-02-22T18:37:20.730Z,18.70
2023-02-22T18:39:52.107Z,18.50
2023-02-22T18:42:22.851Z,20.10
2023-02-22T18:44:51.937Z,19.10
2023-02-22T18:47:22.174Z,18.00
2023-02-22T18:49:50.626Z,17.50
2023-02-22T18:52:19.217Z,18.10
2023-02-22T18:54:49.741Z,18.40
2023-02-22T18:57:23.017Z,17.70
2023-02-22T18:59:51.546Z,17.20
2023-02-22T19:02:21.063Z,17.70
2023-02-22T19:04:49.787Z,18.20
2023-02-22T19:07:20.421Z,18.40
2023-02-22T19:09:52.073Z,19.00
2023-02-22T19:12:20.771Z,18.70
2023-02-22T19:14:49.752Z,18.70
2023-02-22T19:17:21.823Z,18.70
2023-02-22T19:19:50.722Z,19.70
2023-02-22T19:22:19.192Z,22.40
2023-02-22T19:24:47.874Z,20.90
2023-02-22T19:27:18.823Z,21.60
2023-02-22T19:29:49.308Z,21.50
2023-02-22T19:32:18.938Z,23.50
2023-02-22T19:34:47.567Z,22.10
2023-02-22T19:37:16.982Z,23.40
2023-02-22T19:39:45.483Z,24.70
2023-02-22T19:42:14.311Z,24.20
2023-02-22T19:44:42.791Z,24.80
2023-02-22T19:47:11.483Z,23.70
2023-02-22T19:49:41.389Z,22.40
2023-02-22T19:52:10.081Z,22.60
2023-02-22T19:54:38.765Z,23.60
2023-02-22T19:57:07.453Z,23.10
2023-02-22T19:59:36.233Z,22.50
2023-02-22T20:02:11.958Z,22.50
2023-02-22T20:04:40.944Z,22.60
2023-02-22T20:07:09.764Z,23.60
2023-02-22T20:09:40.453Z,24.20
2023-02-22T20:12:09.600Z,23.90
2023-02-22T20:14:38.992Z,25.50
2023-02-22T20:17:08.298Z,24.90
2023-02-22T20:19:38.002Z,25.00
2023-02-22T20:22:07.005Z,25.40
2023-02-22T20:24:35.587Z,24.00
2023-02-22T20:27:04.332Z,24.70
2023-02-22T20:29:33.263Z,23.00
2023-02-22T20:32:03.193Z,24.30
2023-02-22T20:34:33.700Z,25.90
2023-02-22T20:37:03.035Z,24.50
2023-02-22T20:39:31.996Z,24.40
2023-02-22T20:42:00.825Z,25.00
2023-02-22T20:44:30.422Z,26.10
2023-02-22T20:47:06.352Z,24.70
2023-02-22T20:49:36.334Z,25.10
2023-02-22T20:52:05.176Z,25.30
2023-02-22T20:54:35.581Z,26.40
2023-02-22T20:57:08.272Z,26.90
2023-02-22T20:59:36.610Z,25.00
2023-02-22T21:02:05.532Z,23.60
2023-02-22T21:04:34.376Z,25.50
2023-02-22T21:07:03.419Z,25.70
2023-02-22T21:09:34.252Z,27.30
2023-02-22T21:12:03.156Z,25.80
2023-02-22T21:14:32.854Z,21.80
2023-02-22T21:17:04.314Z,20.80
2023-02-22T21:19:33.713Z,22.20
2023-02-22T21:22:08.309Z,22.70
2023-02-22T21:24:37.335Z,24.90
2023-02-22T21:27:07.172Z,26.70
2023-02-22T21:29:36.333Z,25.10
2023-02-22T21:32:05.395Z,23.60
2023-02-22T21:34:34.317Z,24.20
2023-02-22T21:37:02.948Z,22.90
2023-02-22T21:39:31.939Z,23.60
2023-02-22T21:42:00.722Z,23.90
2023-02-22T21:44:30.180Z,22.00
2023-02-22T21:47:01.134Z,22.30
2023-02-22T21:49:29.782Z,22.10
2023-02-22T21:52:00.693Z,23.30
2023-02-22T21:54:29.211Z,22.20
2023-02-22T21:56:59.943Z,22.40
2023-02-22T21:59:28.625Z,22.10
2023-02-22T22:01:59.412Z,22.80
2023-02-22T22:04:30.012Z,22.00
2023-02-22T22:07:04.000Z,24.50
2023-02-22T22:09:33.392Z,25.70
2023-02-22T22:12:05.793Z,26.90
2023-02-22T22:14:34.992Z,26.10
2023-02-22T22:17:05.950Z,23.30
2023-02-22T22:19:40.727Z,24.30
2023-02-22T22:22:11.228Z,23.40
2023-02-22T22:24:42.173Z,23.40
2023-02-22T22:27:13.138Z,24.90
2023-02-22T22:29:43.563Z,24.30
2023-02-22T22:32:12.311Z,26.70
2023-02-22T22:34:42.713Z,25.90
2023-02-22T22:37:11.248Z,25.20
2023-02-22T22:39:39.902Z,25.10
2023-02-22T22:42:10.114Z,25.70
2023-02-22T22:44:42.501Z,27.00
2023-02-22T22:47:19.700Z,26.70
2023-02-22T22:50:01.541Z,24.80
2023-02-22T22:52:37.852Z,25.10
2023-02-22T22:58:34.003Z,23.80
2023-02-22T23:01:06.813Z,23.80
2023-02-22T23:06:13.482Z,23.00
2023-02-22T23:08:43.311Z,22.70
2023-02-22T23:11:12.690Z,22.70
2023-02-22T23:13:46.006Z,20.90
2023-02-22T23:16:17.707Z,20.90
2023-02-22T23:18:51.568Z,19.30
2023-02-22T23:21:25.511Z,19.30
2023-02-22T23:24:07.886Z,22.20
2023-02-22T23:26:38.903Z,20.70
2023-02-22T23:29:08.985Z,21.30
2023-02-22T23:31:41.188Z,21.30
2023-02-22T23:34:11.380Z,21.40
2023-02-22T23:36:49.791Z,21.30
2023-02-22T23:39:22.569Z,21.30
2023-02-22T23:41:59.628Z,24.20
2023-02-22T23:44:31.709Z,23.10
2023-02-22T23:47:05.620Z,24.10
2023-02-22T23:49:38.624Z,22.20
2023-02-22T23:52:09.052Z,19.50
2023-02-22T23:54:44.238Z,20.30
2023-02-22T23:57:17.732Z,19.30
2023-02-22T23:59:54.210Z,19.90
